Time;durP1;ratioP1;P1;durP2;ratioP2;P2;SDS_P1;SDS_P2;PMS_P1;PMS_P2;Temp;Humidity;BMP_temperature;BMP_pressure;BME280_temperature;BME280_humidity;BME280_pressure;Samples;Min_cycle;Max_cycle;Signal;HPM_P1;HPM_P2
2022/05/07 00:02:10;;;;;;;;;;;16.10;99.90;;;;;;5117079;27;20043;-89
2022/05/07 00:04:37;;;;;;;5.22;2.50;;;16.00;99.90;;;;;;5118429;27;19903;-89
2022/05/07 00:07:07;;;;;;;2.75;1.80;;;16.00;99.90;;;;;;5115643;27;20020;-88
2022/05/07 00:09:33;;;;;;;3.03;1.67;;;16.00;99.90;;;;;;5116371;27;20035;-89
2022/05/07 00:11:59;;;;;;;4.80;2.08;;;16.00;99.90;;;;;;5116728;27;20034;-89
2022/05/07 00:14:26;;;;;;;8.50;2.20;;;16.10;99.90;;;;;;5116917;27;20030;-89
2022/05/07 00:19:36;;;;;;;4.63;2.28;;;16.00;99.90;;;;;;5116831;27;20034;-90
2022/05/07 00:22:02;;;;;;;;;;;16.00;99.90;;;;;;5096258;28;20031;-91
2022/05/07 00:24:28;;;;;;;4.53;2.22;;;16.00;99.90;;;;;;5108273;27;19956;-90
2022/05/07 00:26:53;;;;;;;;;;;16.00;99.90;;;;;;5117062;27;20023;-89
2022/05/07 00:29:19;;;;;;;7.65;2.40;;;15.90;99.90;;;;;;5114836;27;20393;-90
2022/05/07 00:31:44;;;;;;;;;;;16.00;99.90;;;;;;5116546;27;20023;-89
2022/05/07 00:34:10;;;;;;;5.72;2.05;;;15.90;99.90;;;;;;5119277;27;19903;-90
2022/05/07 00:36:36;;;;;;;3.80;2.25;;;15.90;99.90;;;;;;5117519;27;20023;-88
2022/05/07 00:39:02;;;;;;;;;;;15.90;99.90;;;;;;5117137;27;20129;-88
2022/05/07 00:41:27;;;;;;;4.10;2.45;;;15.90;99.90;;;;;;5119021;27;20048;-90
2022/05/07 00:43:53;;;;;;;4.60;2.80;;;15.90;99.90;;;;;;5116032;27;20471;-90
2022/05/07 00:46:24;;;;;;;3.28;1.83;;;15.80;99.90;;;;;;5115594;27;20023;-90
2022/05/07 00:48:50;;;;;;;3.78;2.05;;;15.80;99.90;;;;;;5115401;27;20049;-90
2022/05/07 00:51:34;;;;;;;6.15;2.10;;;15.80;99.90;;;;;;5114743;27;20023;-88
2022/05/07 00:54:08;;;;;;;5.93;3.95;;;15.70;99.90;;;;;;5105493;28;20088;-90
2022/05/07 00:56:34;;;;;;;4.25;2.45;;;15.60;99.90;;;;;;5103339;28;20496;-90
2022/05/07 00:59:00;;;;;;;5.53;2.38;;;15.50;99.90;;;;;;5094885;28;20088;-89
2022/05/07 01:01:27;;;;;;;;;;;15.40;99.90;;;;;;5095134;28;20507;-89
2022/05/07 01:03:53;;;;;;;3.47;2.60;;;15.20;99.90;;;;;;5101652;27;19937;-87
2022/05/07 01:06:20;;;;;;;2.97;2.67;;;15.10;99.90;;;;;;5115031;27;20045;-89
2022/05/07 01:08:47;;;;;;;9.35;2.97;;;15.00;99.90;;;;;;5098102;28;20023;-90
2022/05/07 01:11:19;;;;;;;4.10;2.67;;;14.90;99.90;;;;;;5096100;28;20081;-89
2022/05/07 01:13:45;;;;;;;4.45;2.20;;;14.90;99.90;;;;;;5115562;27;20095;-89
2022/05/07 01:16:12;;;;;;;4.90;3.08;;;14.80;99.90;;;;;;5114815;27;21021;-88
2022/05/07 01:18:39;;;;;;;3.95;2.58;;;14.80;99.90;;;;;;5133176;27;20023;-86
2022/05/07 01:21:09;;;;;;;3.20;2.58;;;14.70;99.90;;;;;;5114731;27;20019;-87
2022/05/07 01:23:35;;;;;;;3.00;2.45;;;14.70;99.90;;;;;;5114692;27;20015;-88
2022/05/07 01:26:00;;;;;;;;;;;14.70;99.90;;;;;;5133062;27;20038;-88
2022/05/07 01:28:26;;;;;;;5.43;2.90;;;14.70;99.90;;;;;;5109025;28;19919;-90
2022/05/07 01:30:52;;;;;;;;;;;14.70;99.90;;;;;;5105416;27;20395;-86
2022/05/07 01:33:18;;;;;;;3.90;2.67;;;14.70;99.90;;;;;;5116506;27;20295;-89
2022/05/07 01:35:43;;;;;;;;;;;14.70;99.90;;;;;;5117552;27;20027;-90
2022/05/07 01:38:09;;;;;;;4.82;2.50;;;14.80;99.90;;;;;;5116508;27;19914;-90
2022/05/07 01:40:34;;;;;;;;;;;14.90;99.90;;;;;;5095243;28;20024;-90
2022/05/07 01:43:00;;;;;;;3.85;2.58;;;15.00;99.90;;;;;;5094615;28;19912;-89
2022/05/07 01:45:25;;;;;;;;;;;15.10;99.90;;;;;;5091866;28;20035;-91
2022/05/07 01:48:09;;;;;;;3.85;2.40;;;15.20;99.90;;;;;;5093615;28;19962;-89
2022/05/07 01:50:36;;;;;;;4.47;2.35;;;15.30;99.90;;;;;;5086053;28;20127;-90
2022/05/07 01:53:02;;;;;;;4.07;2.20;;;15.40;99.90;;;;;;5086835;28;20079;-89
2022/05/07 01:55:28;;;;;;;5.53;2.38;;;15.60;99.90;;;;;;5104275;28;20066;-89
2022/05/07 01:57:53;;;;;;;;;;;15.70;99.90;;;;;;5095010;28;20045;-90
2022/05/07 02:00:19;;;;;;;5.60;2.30;;;15.90;99.90;;;;;;5091394;28;20562;-90
2022/05/07 02:02:44;;;;;;;;;;;16.00;99.90;;;;;;5089819;28;20139;-89
2022/05/07 02:05:10;;;;;;;5.28;2.40;;;16.00;99.90;;;;;;5093022;28;19920;-89
2022/05/07 02:07:36;;;;;;;8.88;2.05;;;16.10;99.90;;;;;;5093028;28;20035;-89
2022/05/07 02:10:02;;;;;;;3.42;2.20;;;16.20;99.70;;;;;;5092986;28;20035;-89
2022/05/07 02:12:28;;;;;;;3.08;2.25;;;16.30;99.40;;;;;;5095365;28;20591;-91
2022/05/07 02:14:53;;;;;;;;;;;16.30;99.10;;;;;;5094053;28;20123;-89
2022/05/07 02:17:19;;;;;;;3.85;2.42;;;16.30;98.50;;;;;;5089451;28;19920;-90
2022/05/07 02:19:44;;;;;;;;;;;16.40;98.70;;;;;;5085256;28;20180;-90
2022/05/07 02:22:11;;;;;;;3.45;2.13;;;16.50;97.80;;;;;;5086981;28;20415;-89
2022/05/07 02:24:37;;;;;;;2.97;2.13;;;16.50;97.60;;;;;;5087153;28;20039;-90
2022/05/07 02:27:03;;;;;;;3.08;2.20;;;16.60;97.10;;;;;;5094172;28;20027;-90
2022/05/07 02:29:28;;;;;;;5.47;2.03;;;16.60;97.00;;;;;;5093432;28;20076;-90
2022/05/07 02:32:03;;;;;;;2.67;1.73;;;16.60;96.90;;;;;;5093786;28;20122;-90
2022/05/07 02:34:32;;;;;;;3.58;2.53;;;16.60;96.60;;;;;;5111754;28;20059;-90
2022/05/07 02:36:59;;;;;;;3.40;1.90;;;16.70;96.00;;;;;;5093175;28;20024;-90
2022/05/07 02:39:25;;;;;;;3.38;1.92;;;16.60;95.80;;;;;;5093630;28;20507;-90
2022/05/07 02:44:35;;;;;;;8.32;1.83;;;16.70;95.40;;;;;;5111941;28;20030;-90
2022/05/07 02:47:00;;;;;;;3.78;2.15;;;16.70;95.50;;;;;;5093527;28;20024;-90
2022/05/07 02:49:26;;;;;;;;;;;16.80;94.90;;;;;;5093860;28;20027;-89
2022/05/07 02:51:51;;;;;;;3.92;1.95;;;16.80;94.90;;;;;;5093997;28;20436;-90
2022/05/07 02:54:17;;;;;;;5.43;2.28;;;16.70;94.80;;;;;;5093876;28;20020;-90
2022/05/07 02:56:43;;;;;;;3.20;1.95;;;16.80;94.60;;;;;;5094087;28;20032;-90
2022/05/07 02:59:09;;;;;;;3.60;1.40;;;16.90;94.10;;;;;;5093567;28;20023;-90
2022/05/07 03:01:34;;;;;;;3.97;2.38;;;16.90;93.80;;;;;;5093038;28;20043;-90
2022/05/07 03:04:00;;;;;;;3.63;2.08;;;16.90;93.70;;;;;;5093301;28;20030;-91
2022/05/07 03:06:26;;;;;;;5.50;2.15;;;16.80;93.70;;;;;;5093728;28;20032;-90
2022/05/07 03:08:52;;;;;;;3.53;1.77;;;16.90;93.30;;;;;;5095838;28;20032;-90
2022/05/07 03:11:18;;;;;;;4.65;2.00;;;16.90;93.50;;;;;;5093598;28;20023;-90
2022/05/07 03:13:44;;;;;;;3.78;1.83;;;16.80;93.90;;;;;;5097492;28;20123;-89
2022/05/07 03:16:10;;;;;;;3.42;2.03;;;16.80;94.10;;;;;;5116178;28;20114;-91
2022/05/07 03:18:35;;;;;;;3.63;2.05;;;16.80;93.30;;;;;;5096948;28;20019;-90
2022/05/07 03:21:02;;;;;;;3.65;2.10;;;16.90;92.90;;;;;;5097202;28;20110;-90
2022/05/07 03:23:28;;;;;;;2.92;1.70;;;16.80;93.00;;;;;;5096979;28;20023;-90
2022/05/07 03:25:55;;;;;;;2.90;1.98;;;16.90;92.60;;;;;;5097183;28;20113;-90
2022/05/07 03:28:21;;;;;;;2.92;1.73;;;16.90;93.10;;;;;;5097206;28;20028;-90
2022/05/07 03:30:46;;;;;;;6.18;2.00;;;16.90;92.10;;;;;;5097496;28;20039;-90
2022/05/07 03:33:14;;;;;;;7.70;1.90;;;16.90;92.20;;;;;;5096854;28;20055;-89
2022/05/07 03:35:40;;;;;;;6.53;2.13;;;16.90;92.30;;;;;;5094880;28;20112;-90
2022/05/07 03:38:06;;;;;;;2.97;1.70;;;16.90;92.10;;;;;;5095331;28;20492;-90
2022/05/07 03:40:32;;;;;;;4.65;1.65;;;16.90;92.00;;;;;;5097418;28;20089;-89
2022/05/07 03:42:58;;;;;;;6.35;2.10;;;16.90;91.70;;;;;;5097050;28;20031;-90
2022/05/07 03:45:24;;;;;;;3.63;2.00;;;16.90;92.30;;;;;;5099407;28;20023;-89
2022/05/07 03:47:50;;;;;;;3.30;2.00;;;16.90;92.40;;;;;;5100272;28;20039;-90
2022/05/07 03:50:16;;;;;;;4.20;2.20;;;16.90;91.70;;;;;;5096439;28;20024;-89
2022/05/07 03:55:25;;;;;;;2.47;2.10;;;16.90;92.00;;;;;;5115327;28;20093;-90
2022/05/07 03:57:51;;;;;;;4.35;2.10;;;16.90;91.90;;;;;;5097106;28;20035;-90
2022/05/07 04:00:17;;;;;;;6.57;2.83;;;16.90;91.40;;;;;;5114776;28;20480;-89
2022/05/07 04:02:42;;;;;;;2.50;1.73;;;16.90;91.40;;;;;;5114723;28;20138;-90
2022/05/07 04:05:08;;;;;;;;;;;17.00;90.80;;;;;;5097354;28;20016;-91
2022/05/07 04:07:34;;;;;;;3.67;1.90;;;17.00;90.40;;;;;;5095682;28;19912;-90
2022/05/07 04:09:59;;;;;;;2.85;1.90;;;17.00;90.70;;;;;;5114132;28;20032;-90
2022/05/07 04:12:25;;;;;;;3.42;2.05;;;17.10;90.50;;;;;;5096527;28;20016;-90
2022/05/07 04:14:50;;;;;;;3.90;2.25;;;17.10;90.50;;;;;;5096286;28;20035;-90
2022/05/07 04:17:16;;;;;;;3.85;1.70;;;17.20;90.10;;;;;;5096255;28;20012;-90
2022/05/07 04:19:42;;;;;;;;;;;17.20;90.60;;;;;;5114493;28;20026;-90
2022/05/07 04:22:07;;;;;;;5.22;1.83;;;17.10;90.90;;;;;;5096192;28;20652;-91
2022/05/07 04:24:33;;;;;;;4.05;2.40;;;17.10;90.90;;;;;;5095391;28;20035;-90
2022/05/07 04:27:02;;;;;;;3.17;2.00;;;17.10;90.20;;;;;;5114670;28;20051;-90
2022/05/07 04:29:27;;;;;;;3.20;2.10;;;17.10;90.30;;;;;;5096830;28;20557;-90
2022/05/07 04:31:53;;;;;;;3.88;1.90;;;17.10;90.60;;;;;;5096033;28;20019;-90
2022/05/07 04:34:19;;;;;;;;;;;17.10;92.40;;;;;;5096810;28;20115;-89
2022/05/07 04:36:44;;;;;;;5.63;2.13;;;17.10;95.60;;;;;;5095929;28;19999;-89
2022/05/07 04:39:10;;;;;;;3.20;2.40;;;17.00;96.70;;;;;;5095607;28;20476;-90
2022/05/07 04:41:36;;;;;;;3.33;2.78;;;16.90;98.60;;;;;;5095824;28;20027;-90
2022/05/07 04:44:01;;;;;;;4.50;2.85;;;16.80;99.90;;;;;;5096002;28;20051;-89
2022/05/07 04:46:27;;;;;;;7.72;3.60;;;16.70;99.90;;;;;;5095108;28;20122;-89
2022/05/07 04:48:53;;;;;;;5.13;3.15;;;16.70;99.90;;;;;;5094958;28;20218;-90
2022/05/07 04:51:19;;;;;;;9.45;3.50;;;16.70;99.90;;;;;;5097100;28;20031;-90
2022/05/07 04:53:44;;;;;;;6.43;4.00;;;16.60;99.90;;;;;;5095331;28;20035;-90
2022/05/07 04:56:10;;;;;;;7.75;3.97;;;16.50;99.90;;;;;;5094647;28;20030;-90
2022/05/07 04:58:36;;;;;;;7.68;4.30;;;16.50;99.90;;;;;;5095834;28;20028;-89
2022/05/07 05:01:03;;;;;;;8.73;3.95;;;16.50;99.90;;;;;;5095655;28;20032;-90
2022/05/07 05:03:28;;;;;;;10.52;3.90;;;16.40;99.90;;;;;;5095506;28;20039;-90
2022/05/07 05:05:54;;;;;;;8.00;4.80;;;16.40;99.90;;;;;;5096166;28;20110;-90
2022/05/07 05:08:20;;;;;;;11.23;4.50;;;16.40;99.90;;;;;;5094951;28;20400;-90
2022/05/07 05:10:45;;;;;;;;;;;16.40;99.90;;;;;;5095926;28;20023;-90
2022/05/07 05:13:11;;;;;;;9.27;4.68;;;16.30;99.90;;;;;;5113317;28;19903;-90
2022/05/07 05:15:37;;;;;;;5.93;4.20;;;16.40;99.90;;;;;;5095252;28;20019;-89
2022/05/07 05:18:04;;;;;;;8.95;5.32;;;16.30;99.90;;;;;;5095554;28;20024;-90
2022/05/07 05:20:30;;;;;;;6.25;5.05;;;16.40;99.90;;;;;;5097089;28;20016;-89
2022/05/07 05:22:55;;;;;;;8.48;5.72;;;16.40;99.90;;;;;;5096156;28;20128;-90
2022/05/07 05:25:21;;;;;;;6.13;4.43;;;16.30;99.90;;;;;;5112467;28;20027;-89
2022/05/07 05:27:48;;;;;;;5.75;4.72;;;16.40;99.90;;;;;;5094966;28;20118;-89
2022/05/07 05:30:13;;;;;;;6.60;4.63;;;16.50;99.90;;;;;;5096051;28;20052;-90
2022/05/07 05:32:39;;;;;;;12.13;5.10;;;16.60;99.90;;;;;;5095406;28;20039;-90
2022/05/07 05:35:05;;;;;;;6.20;4.43;;;16.70;99.90;;;;;;5113673;28;20145;-90
2022/05/07 05:37:31;;;;;;;9.38;4.88;;;16.70;99.90;;;;;;5097181;28;20032;-90
2022/05/07 05:39:57;;;;;;;5.53;4.07;;;16.80;99.90;;;;;;5098454;28;20169;-90
2022/05/07 05:42:24;;;;;;;7.05;4.65;;;16.90;99.90;;;;;;5095344;28;20038;-90
2022/05/07 05:44:49;;;;;;;6.70;4.40;;;16.90;99.90;;;;;;5095257;28;20391;-90
2022/05/07 05:47:15;;;;;;;7.68;4.93;;;17.00;99.90;;;;;;5096300;28;20034;-90
2022/05/07 05:49:41;;;;;;;9.52;4.45;;;17.10;99.90;;;;;;5096306;28;20023;-91
2022/05/07 05:52:08;;;;;;;6.45;4.10;;;17.20;99.90;;;;;;5095930;28;20028;-90
2022/05/07 05:54:34;;;;;;;8.15;4.05;;;17.30;99.90;;;;;;5095933;28;20110;-90
2022/05/07 05:57:00;;;;;;;6.57;4.22;;;17.40;99.90;;;;;;5094834;28;20574;-90
2022/05/07 05:59:27;;;;;;;8.35;4.60;;;17.50;99.90;;;;;;5094753;28;20239;-91
2022/05/07 06:01:53;;;;;;;8.18;4.13;;;17.50;99.90;;;;;;5113299;28;20051;-90
2022/05/07 06:04:19;;;;;;;6.97;4.75;;;17.60;99.90;;;;;;5094960;28;20051;-90
2022/05/07 06:06:45;;;;;;;6.80;4.13;;;17.70;99.90;;;;;;5095004;28;20095;-90
2022/05/07 06:09:11;;;;;;;7.38;4.28;;;17.70;99.90;;;;;;5095846;28;20495;-91
2022/05/07 06:11:36;;;;;;;6.38;4.22;;;17.80;99.90;;;;;;5093932;28;20023;-91
2022/05/07 06:14:02;;;;;;;6.25;4.57;;;17.90;99.90;;;;;;5112543;28;20035;-91
2022/05/07 06:16:29;;;;;;;11.00;4.78;;;18.10;99.90;;;;;;5093448;28;20094;-91
2022/05/07 06:18:54;;;;;;;17.63;4.68;;;18.20;99.90;;;;;;5112390;28;20068;-90
2022/05/07 06:21:20;;;;;;;11.27;5.68;;;18.30;99.90;;;;;;5092795;28;20027;-90
2022/05/07 06:23:46;;;;;;;6.10;4.45;;;18.30;99.90;;;;;;5094370;28;20453;-90
2022/05/07 06:28:56;;;;;;;11.10;5.22;;;18.40;99.90;;;;;;5112296;28;20050;-90
2022/05/07 06:31:21;;;;;;;7.32;4.40;;;18.40;99.90;;;;;;5094796;28;20016;-90
2022/05/07 06:33:47;;;;;;;6.43;4.30;;;18.50;99.90;;;;;;5094317;28;20385;-91
2022/05/07 06:36:12;;;;;;;8.13;4.45;;;18.50;99.90;;;;;;5094471;28;20027;-90
2022/05/07 06:38:38;;;;;;;11.73;3.90;;;18.60;99.90;;;;;;5094725;28;20404;-91
2022/05/07 06:41:06;;;;;;;5.53;3.85;;;18.70;99.90;;;;;;5094906;28;20043;-90
2022/05/07 06:43:33;;;;;;;7.13;4.03;;;18.70;99.90;;;;;;5096262;28;20086;-90
2022/05/07 06:45:59;;;;;;;8.38;4.95;;;18.70;99.90;;;;;;5095414;28;20127;-90
2022/05/07 06:48:26;;;;;;;6.30;4.63;;;18.80;99.90;;;;;;5100206;28;20165;-90
2022/05/07 06:50:53;;;;;;;8.13;4.82;;;18.80;99.60;;;;;;5098384;28;20036;-90
2022/05/07 06:53:19;;;;;;;12.00;4.65;;;19.00;99.90;;;;;;5097584;28;20472;-90
2022/05/07 06:55:54;;;;;;;10.38;4.35;;;19.10;99.90;;;;;;5099883;28;20020;-90
2022/05/07 06:58:25;;;;;;;5.80;4.00;;;19.20;99.50;;;;;;5099068;28;20027;-90
2022/05/07 07:00:51;;;;;;;16.38;4.65;;;19.30;99.90;;;;;;5098587;28;20024;-91
2022/05/07 07:03:17;;;;;;;6.32;4.53;;;19.50;99.00;;;;;;5098354;28;20618;-90
2022/05/07 07:05:43;;;;;;;5.97;4.18;;;19.60;98.20;;;;;;5099838;28;20110;-91
2022/05/07 07:08:11;;;;;;;7.25;4.40;;;19.70;98.10;;;;;;5118132;28;20024;-90
2022/05/07 07:10:37;;;;;;;7.70;3.85;;;19.80;98.20;;;;;;5099149;28;20034;-91
2022/05/07 07:13:04;;;;;;;9.48;4.97;;;19.90;97.20;;;;;;5097990;28;20114;-91
2022/05/07 07:15:30;;;;;;;7.97;4.28;;;19.90;97.30;;;;;;5097501;28;20072;-91
2022/05/07 07:17:55;;;;;;;10.60;4.57;;;20.10;97.40;;;;;;5098015;28;20023;-91
2022/05/07 07:20:21;;;;;;;8.30;5.03;;;20.20;96.70;;;;;;5098328;28;20020;-91
2022/05/07 07:22:46;;;;;;;8.82;4.28;;;20.20;96.30;;;;;;5098388;28;20035;-90
2022/05/07 07:25:12;;;;;;;7.50;4.38;;;20.30;95.80;;;;;;5100040;28;20032;-91
2022/05/07 07:27:38;;;;;;;8.18;5.38;;;20.30;96.00;;;;;;5081769;28;20084;-90
2022/05/07 07:30:04;;;;;;;9.88;5.90;;;20.40;95.90;;;;;;5098784;28;20024;-91
2022/05/07 07:32:30;;;;;;;7.40;5.47;;;20.40;95.20;;;;;;5097326;28;20028;-91
2022/05/07 07:34:55;;;;;;;6.53;5.70;;;20.50;95.50;;;;;;5097439;28;20026;-91
2022/05/07 07:37:22;;;;;;;9.40;5.53;;;20.60;96.10;;;;;;5097350;28;20041;-90
2022/05/07 07:39:47;;;;;;;10.55;6.00;;;20.70;94.90;;;;;;5097454;28;20062;-90
2022/05/07 07:42:13;;;;;;;12.27;6.05;;;20.70;94.20;;;;;;5099950;28;20032;-91
2022/05/07 07:44:38;;;;;;;14.23;5.07;;;20.70;95.30;;;;;;5096569;28;20020;-91
2022/05/07 07:49:48;;;;;;;9.15;5.13;;;20.80;94.70;;;;;;5115321;28;20042;-90
2022/05/07 07:52:15;;;;;;;6.40;4.43;;;20.80;94.70;;;;;;5097862;28;20027;-90
2022/05/07 07:54:41;;;;;;;8.00;3.42;;;20.80;94.40;;;;;;5098252;28;20396;-91
2022/05/07 07:57:07;;;;;;;8.05;3.33;;;20.70;91.80;;;;;;5098017;28;20027;-91
2022/05/07 07:59:32;;;;;;;4.05;3.33;;;20.70;87.00;;;;;;5097840;28;20499;-91
2022/05/07 08:01:58;;;;;;;3.22;2.90;;;20.80;80.70;;;;;;5116401;28;20055;-91
2022/05/07 08:04:25;;;;;;;12.15;3.20;;;20.60;80.30;;;;;;5097587;28;20591;-90
2022/05/07 08:11:40;;;;;;;5.45;3.60;;;20.70;79.50;;;;;;5097508;28;20101;-91
2022/05/07 08:12:29;;;;;;;6.55;3.45;;;20.70;81.60;;;;;;5083431;28;20111;-90
2022/05/07 08:14:55;;;;;;;5.25;3.28;;;20.60;79.80;;;;;;5096858;28;20257;-91
2022/05/07 08:17:20;;;;;;;5.10;3.67;;;20.60;79.70;;;;;;5096362;28;20488;-90
2022/05/07 08:19:46;;;;;;;6.30;3.55;;;20.70;81.00;;;;;;5096512;28;20035;-91
2022/05/07 08:22:11;;;;;;;7.53;4.40;;;20.80;75.70;;;;;;5096611;28;20114;-91
2022/05/07 08:24:37;;;;;;;5.30;3.38;;;20.70;73.20;;;;;;5096817;28;20605;-91
2022/05/07 08:27:03;;;;;;;5.90;3.28;;;20.80;73.50;;;;;;5095520;28;20031;-91
2022/05/07 08:29:29;;;;;;;4.60;3.22;;;20.70;72.70;;;;;;5097555;28;20126;-91
2022/05/07 08:31:55;;;;;;;5.20;3.80;;;20.60;73.10;;;;;;5116219;28;20061;-91
2022/05/07 08:34:20;;;;;;;6.30;3.70;;;20.70;75.40;;;;;;5096455;28;20371;-91
2022/05/07 08:36:46;;;;;;;4.25;3.00;;;20.70;72.70;;;;;;5113536;28;20481;-91
2022/05/07 08:39:11;;;;;;;4.57;3.17;;;20.60;73.50;;;;;;5096143;28;20027;-91
2022/05/07 08:41:37;;;;;;;6.80;3.47;;;20.50;74.60;;;;;;5095853;28;20037;-91
2022/05/07 08:44:03;;;;;;;9.50;3.95;;;20.70;75.10;;;;;;5114488;28;20164;-92
2022/05/07 08:46:29;;;;;;;6.97;3.30;;;20.60;76.80;;;;;;5095825;28;20016;-91
2022/05/07 08:48:56;;;;;;;5.80;3.92;;;20.60;77.50;;;;;;5095277;28;20028;-91
2022/05/07 08:51:21;;;;;;;6.50;4.43;;;20.60;78.80;;;;;;5095929;28;20551;-91
2022/05/07 08:53:49;;;;;;;8.82;4.07;;;20.50;80.80;;;;;;5096251;28;20104;-91
2022/05/07 08:56:15;;;;;;;6.47;3.72;;;20.40;87.50;;;;;;5097488;28;20030;-90
2022/05/07 08:58:52;;;;;;;4.43;3.60;;;20.60;88.50;;;;;;5094346;28;20434;-91
2022/05/07 09:01:18;;;;;;;4.93;3.65;;;20.70;83.60;;;;;;5092970;28;20024;-91
2022/05/07 09:03:47;;;;;;;8.80;4.05;;;20.70;84.50;;;;;;5094555;28;20043;-91
2022/05/07 09:06:23;;;;;;;7.10;3.35;;;20.70;83.20;;;;;;5095455;28;20038;-91
2022/05/07 09:08:50;;;;;;;6.38;3.47;;;20.60;87.90;;;;;;5095065;28;20031;-92
2022/05/07 09:11:17;;;;;;;5.57;3.45;;;20.60;86.90;;;;;;5095027;28;20034;-91
2022/05/07 09:13:43;;;;;;;6.13;3.47;;;20.70;86.70;;;;;;5096170;28;20028;-91
2022/05/07 09:16:09;;;;;;;5.65;3.72;;;20.60;86.70;;;;;;5097383;28;20020;-91
2022/05/07 09:18:35;;;;;;;6.57;3.50;;;20.70;90.20;;;;;;5099487;28;20020;-91
2022/05/07 09:21:23;;;;;;;5.18;3.42;;;20.90;87.40;;;;;;5097653;28;20076;-91
2022/05/07 09:23:58;;;;;;;8.77;3.95;;;20.90;86.30;;;;;;5095310;28;20024;-91
2022/05/07 09:26:29;;;;;;;5.78;3.28;;;20.90;84.20;;;;;;5095334;28;20031;-91
2022/05/07 09:28:55;;;;;;;7.15;3.70;;;20.90;84.10;;;;;;5095370;28;20038;-92
2022/05/07 09:31:25;;;;;;;7.57;3.85;;;21.10;84.00;;;;;;5094537;28;20024;-91
2022/05/07 09:33:51;;;;;;;6.30;3.63;;;21.20;84.90;;;;;;5095192;28;20566;-91
2022/05/07 09:36:17;;;;;;;6.15;3.90;;;21.30;82.10;;;;;;5112964;28;20059;-92
2022/05/07 09:38:43;;;;;;;7.53;4.00;;;21.30;82.00;;;;;;5094219;28;20126;-91
2022/05/07 09:41:19;;;;;;;7.15;3.90;;;21.40;81.60;;;;;;5096122;28;20023;-91
2022/05/07 09:43:47;;;;;;;5.55;3.63;;;21.30;83.00;;;;;;5096464;28;20500;-91
2022/05/07 09:46:13;;;;;;;7.05;4.15;;;21.20;83.70;;;;;;5095442;28;20566;-90
2022/05/07 09:48:40;;;;;;;7.57;4.72;;;21.30;86.60;;;;;;5094900;28;20043;-91
2022/05/07 09:51:06;;;;;;;6.90;4.43;;;21.30;83.80;;;;;;5094807;28;20028;-91
2022/05/07 09:59:01;;;;;;;5.45;3.67;;;21.50;84.20;;;;;;5113045;28;20085;-92
2022/05/07 10:01:53;;;;;;;7.82;4.07;;;21.60;87.80;;;;;;5112886;28;20181;-91
2022/05/07 10:04:50;;;;;;;11.55;4.10;;;21.80;84.50;;;;;;5094234;28;20032;-90
2022/05/07 10:08:14;;;;;;;9.52;4.60;;;21.90;79.10;;;;;;5094182;28;20058;-90
2022/05/07 10:10:41;;;;;;;7.03;4.25;;;22.10;78.20;;;;;;5039586;28;20032;-91
2022/05/07 10:13:08;;;;;;;6.80;3.58;;;21.90;77.00;;;;;;5094040;28;20035;-91
2022/05/07 10:15:34;;;;;;;8.63;3.60;;;21.90;77.10;;;;;;5094121;28;20475;-90
2022/05/07 10:18:01;;;;;;;8.23;4.00;;;22.10;79.30;;;;;;5094005;28;20492;-91
2022/05/07 10:20:44;;;;;;;6.63;3.55;;;22.20;77.40;;;;;;5094207;28;20024;-92
2022/05/07 10:23:11;;;;;;;7.00;3.30;;;22.40;72.90;;;;;;5093540;28;20080;-91
2022/05/07 10:25:37;;;;;;;7.95;3.20;;;22.60;72.30;;;;;;5093937;28;20027;-92
2022/05/07 10:28:14;;;;;;;6.70;3.47;;;22.70;67.50;;;;;;5093182;28;20036;-90
2022/05/07 10:30:51;;;;;;;11.07;3.63;;;23.00;68.40;;;;;;5093950;28;20095;-91
2022/05/07 10:33:18;;;;;;;8.75;3.90;;;23.10;69.40;;;;;;5093359;28;20118;-91
2022/05/07 10:35:55;;;;;;;7.18;4.05;;;22.80;67.50;;;;;;5094091;28;20044;-91
2022/05/07 10:38:26;;;;;;;5.20;3.67;;;22.70;68.90;;;;;;5094019;28;20360;-92
2022/05/07 10:40:55;;;;;;;7.45;3.33;;;22.70;71.40;;;;;;5093567;28;20812;-91
2022/05/07 10:43:30;;;;;;;6.63;4.20;;;22.90;70.20;;;;;;5093926;28;20031;-91
2022/05/07 10:46:02;;;;;;;5.28;3.67;;;23.00;67.30;;;;;;5093253;28;20068;-90
2022/05/07 10:48:28;;;;;;;7.22;3.72;;;23.00;66.60;;;;;;5093845;28;20564;-91
2022/05/07 10:50:59;;;;;;;7.07;3.90;;;22.90;68.10;;;;;;5094033;28;20621;-91
2022/05/07 10:53:37;;;;;;;5.78;3.97;;;22.70;66.40;;;;;;5093231;28;20488;-91
2022/05/07 10:56:03;;;;;;;9.07;3.90;;;22.70;68.50;;;;;;5093909;28;20032;-91
2022/05/07 10:58:29;;;;;;;5.97;2.92;;;22.80;70.30;;;;;;5093354;28;20476;-90
2022/05/07 11:00:58;;;;;;;11.80;4.07;;;22.80;63.40;;;;;;5093427;28;20030;-92
2022/05/07 11:03:26;;;;;;;5.50;3.33;;;22.60;66.30;;;;;;5072212;28;20064;-91
2022/05/07 11:05:58;;;;;;;5.15;2.67;;;22.50;68.40;;;;;;5070520;28;20094;-91
2022/05/07 11:08:23;;;;;;;5.72;3.53;;;22.70;65.60;;;;;;5070071;28;20125;-92
2022/05/07 11:10:50;;;;;;;7.45;3.38;;;22.80;63.70;;;;;;5072960;28;20469;-91
2022/05/07 11:13:19;;;;;;;4.85;3.55;;;22.80;65.50;;;;;;5069998;28;20017;-90
2022/05/07 11:15:50;;;;;;;4.30;2.85;;;22.70;66.80;;;;;;5069659;28;20078;-90
2022/05/07 11:18:16;;;;;;;8.73;3.47;;;22.80;65.10;;;;;;5069831;28;20032;-90
2022/05/07 11:20:43;;;;;;;8.05;3.30;;;23.00;64.70;;;;;;5069917;28;20328;-91
2022/05/07 11:23:13;;;;;;;5.50;3.40;;;22.90;63.30;;;;;;5070908;28;20047;-92
2022/05/07 11:25:40;;;;;;;9.70;3.10;;;22.90;65.00;;;;;;5069993;28;20400;-91
2022/05/07 11:28:06;;;;;;;8.05;3.28;;;22.90;66.10;;;;;;5069385;28;20041;-91
2022/05/07 11:30:32;;;;;;;4.40;2.60;;;23.00;64.40;;;;;;5070236;28;20025;-92
2022/05/07 11:33:05;;;;;;;6.32;3.13;;;22.90;64.70;;;;;;5070966;28;20077;-91
2022/05/07 11:35:30;;;;;;;5.72;3.17;;;23.10;63.10;;;;;;5073549;28;20020;-92
2022/05/07 11:37:56;;;;;;;8.82;4.20;;;23.10;62.80;;;;;;5073527;28;20209;-91
2022/05/07 11:40:31;;;;;;;6.57;4.10;;;23.00;63.60;;;;;;5071642;28;20120;-92
2022/05/07 11:45:41;;;;;;;8.63;4.70;;;23.10;65.90;;;;;;5074570;28;20035;-90
2022/05/07 11:48:09;;;;;;;10.27;4.50;;;23.20;66.60;;;;;;5073213;28;20382;-91
2022/05/07 11:50:41;;;;;;;9.45;4.60;;;23.20;65.50;;;;;;5073182;28;20047;-91
2022/05/07 11:53:13;;;;;;;8.68;5.13;;;23.40;64.90;;;;;;5074021;28;20063;-91
2022/05/07 11:55:39;;;;;;;8.70;3.20;;;23.40;66.00;;;;;;5072508;28;20025;-91
2022/05/07 11:58:22;;;;;;;10.13;3.85;;;23.40;65.70;;;;;;5072917;28;20023;-91
2022/05/07 12:00:49;;;;;;;7.82;4.22;;;23.40;67.20;;;;;;5073508;28;20028;-91
2022/05/07 12:03:20;;;;;;;9.00;3.50;;;23.40;67.30;;;;;;5072853;28;20276;-92
2022/05/07 12:05:50;;;;;;;5.57;3.78;;;23.60;61.50;;;;;;5074190;28;20488;-91
2022/05/07 12:08:20;;;;;;;6.90;4.07;;;23.80;63.00;;;;;;5073224;28;20119;-92
2022/05/07 12:10:48;;;;;;;7.40;4.40;;;23.60;63.50;;;;;;5072238;28;20075;-91
2022/05/07 12:13:15;;;;;;;6.85;3.92;;;23.60;64.40;;;;;;5075150;28;20162;-89
2022/05/07 12:18:26;;;;;;;8.20;4.05;;;23.80;64.40;;;;;;5075109;28;20085;-92
2022/05/07 12:20:52;;;;;;;7.13;3.80;;;23.90;65.80;;;;;;5073386;28;20119;-92
2022/05/07 12:31:53;;;;;;;5.78;3.75;;;23.90;63.80;;;;;;5062316;28;20421;-92
2022/05/07 12:34:21;;;;;;;12.75;4.40;;;24.00;61.80;;;;;;5073514;28;20099;-92
2022/05/07 12:36:47;;;;;;;8.80;2.95;;;23.90;62.60;;;;;;5073766;28;20548;-90
2022/05/07 12:39:12;;;;;;;7.10;3.17;;;23.80;64.20;;;;;;5062219;28;20128;-90
2022/05/07 12:41:42;;;;;;;7.45;3.65;;;24.00;64.00;;;;;;5053262;28;20406;-91
2022/05/07 12:44:08;;;;;;;7.45;2.83;;;24.20;60.90;;;;;;5048395;28;20028;-89
2022/05/07 12:46:34;;;;;;;9.65;3.22;;;24.20;60.40;;;;;;5061942;28;20460;-91
2022/05/07 12:48:59;;;;;;;6.05;3.20;;;24.30;60.30;;;;;;5054911;28;20044;-92
2022/05/07 12:51:25;;;;;;;6.53;3.65;;;24.40;59.50;;;;;;5056258;28;20025;-89
2022/05/07 12:53:53;;;;;;;4.07;2.83;;;24.40;58.00;;;;;;5052877;28;20119;-91
2022/05/07 12:56:18;;;;;;;6.55;2.42;;;24.30;57.20;;;;;;5050972;28;20096;-91
2022/05/07 12:58:46;;;;;;;7.10;2.95;;;24.40;57.70;;;;;;5061942;28;20106;-91
2022/05/07 13:01:12;;;;;;;6.93;2.47;;;24.50;57.20;;;;;;5067686;28;20044;-91
2022/05/07 13:03:38;;;;;;;5.25;2.63;;;24.60;55.80;;;;;;5096391;28;20155;-91
2022/05/07 13:06:04;;;;;;;5.18;2.95;;;24.80;56.80;;;;;;5097844;28;20074;-91
2022/05/07 13:08:30;;;;;;;5.38;3.80;;;24.90;55.30;;;;;;5096278;28;20089;-92
2022/05/07 13:10:57;;;;;;;5.30;2.83;;;24.90;54.90;;;;;;5096531;28;20035;-91
2022/05/07 13:13:24;;;;;;;3.17;2.30;;;24.80;54.30;;;;;;5095515;28;20030;-91
2022/05/07 13:15:51;;;;;;;8.68;2.58;;;24.70;54.20;;;;;;5096436;28;20226;-92
2022/05/07 13:18:17;;;;;;;9.77;3.50;;;24.50;53.30;;;;;;5114940;28;20024;-93
2022/05/07 13:20:43;;;;;;;5.55;2.00;;;24.20;53.30;;;;;;5097059;28;20031;-93
2022/05/07 13:23:12;;;;;;;5.45;2.63;;;24.00;55.60;;;;;;5096611;28;20023;-92
2022/05/07 13:25:38;;;;;;;5.03;2.70;;;23.90;54.50;;;;;;5096721;28;20038;-91
2022/05/07 13:28:04;;;;;;;4.15;2.65;;;23.80;54.80;;;;;;5100466;28;20027;-91